Time;durP1;ratioP1;P1;durP2;ratioP2;P2;SDS_P1;SDS_P2;PMS_P1;PMS_P2;Temp;Humidity;BMP_temperature;BMP_pressure;BME280_temperature;BME280_humidity;BME280_pressure;Samples;Min_cycle;Max_cycle;Signal;HPM_P1;HPM_P2
2021/12/09 00:01:24;;;;;;;1.35;0.40;;;1.60;94.80;;;;;;4857034;29;20088;-79
2021/12/09 00:03:56;;;;;;;0.77;0.30;;;1.60;94.80;;;;;;4852144;29;20050;-80
2021/12/09 00:06:27;;;;;;;1.75;0.55;;;1.60;94.90;;;;;;4830933;29;20054;-80
2021/12/09 00:09:01;;;;;;;0.63;0.22;;;1.60;94.80;;;;;;4829725;29;20121;-80
2021/12/09 00:11:34;;;;;;;0.85;0.40;;;1.60;94.90;;;;;;4852807;29;20050;-80
2021/12/09 00:14:01;;;;;;;3.97;0.40;;;1.60;94.90;;;;;;4819877;29;20069;-79
2021/12/09 00:16:28;;;;;;;1.35;0.43;;;1.60;94.90;;;;;;4831176;29;20049;-79
2021/12/09 00:18:55;;;;;;;0.98;0.30;;;1.50;94.80;;;;;;4830134;29;20836;-80
2021/12/09 00:21:22;;;;;;;0.93;0.40;;;1.60;94.90;;;;;;4828528;29;20082;-79
2021/12/09 00:23:49;;;;;;;1.35;0.50;;;1.50;94.90;;;;;;4844520;29;20065;-80
2021/12/09 00:26:16;;;;;;;1.65;0.40;;;1.50;94.80;;;;;;4829597;29;20122;-79
2021/12/09 00:28:45;;;;;;;1.88;0.40;;;1.50;94.80;;;;;;4864873;29;20068;-80
2021/12/09 00:31:14;;;;;;;1.50;0.50;;;1.60;94.90;;;;;;4831632;29;21266;-80
2021/12/09 00:37:57;;;;;;;1.52;0.50;;;1.50;94.90;;;;;;5741985;23;20137;-74
2021/12/09 00:43:57;;;;;;;1.05;0.50;;;1.40;94.90;;;;;;4821538;29;20081;-72
2021/12/09 00:46:24;;;;;;;1.23;0.40;;;1.40;94.90;;;;;;4823413;29;20074;-72
2021/12/09 00:48:51;;;;;;;1.33;0.50;;;1.40;94.90;;;;;;4823205;29;20050;-72
2021/12/09 00:51:19;;;;;;;1.15;0.40;;;1.40;94.90;;;;;;4808498;29;20522;-72
2021/12/09 00:53:46;;;;;;;1.30;0.40;;;1.40;94.90;;;;;;4824174;29;20062;-72
2021/12/09 00:56:15;;;;;;;1.77;0.40;;;1.40;94.90;;;;;;4823707;29;20050;-72
2021/12/09 00:58:44;;;;;;;0.90;0.40;;;1.40;95.00;;;;;;4838660;29;20070;-72
2021/12/09 01:01:12;;;;;;;1.03;0.50;;;1.30;95.20;;;;;;4823540;29;20137;-72
2021/12/09 01:03:41;;;;;;;1.17;0.52;;;1.30;94.90;;;;;;4838597;29;20054;-72
2021/12/09 01:06:09;;;;;;;1.75;0.57;;;1.30;94.90;;;;;;4823542;29;20070;-72
2021/12/09 01:08:41;;;;;;;1.23;0.40;;;1.30;94.90;;;;;;4824073;29;20054;-71
2021/12/09 01:11:10;;;;;;;1.00;0.38;;;1.30;94.90;;;;;;4824578;29;20110;-72
2021/12/09 01:13:38;;;;;;;2.13;0.50;;;1.30;95.20;;;;;;4838554;29;20058;-72
2021/12/09 01:16:09;;;;;;;1.33;0.50;;;1.30;94.90;;;;;;4838443;29;20051;-71
2021/12/09 01:18:37;;;;;;;0.98;0.40;;;1.30;95.00;;;;;;4838302;29;20108;-73
2021/12/09 01:21:05;;;;;;;0.82;0.68;;;1.30;94.90;;;;;;4823349;29;20081;-71
2021/12/09 01:23:33;;;;;;;0.80;0.33;;;1.30;95.00;;;;;;4822971;29;20099;-72
2021/12/09 01:26:03;;;;;;;1.00;0.40;;;1.30;95.00;;;;;;4823271;29;20416;-72
2021/12/09 01:28:36;;;;;;;0.77;0.40;;;1.30;94.90;;;;;;4838649;29;20054;-79
2021/12/09 01:31:06;;;;;;;1.27;0.40;;;1.30;95.00;;;;;;4839079;29;20051;-79
2021/12/09 01:33:35;;;;;;;0.88;0.30;;;1.20;94.90;;;;;;4825343;29;20526;-79
2021/12/09 01:36:05;;;;;;;2.43;0.60;;;1.20;94.90;;;;;;4839154;29;20142;-79
2021/12/09 01:38:33;;;;;;;1.30;0.40;;;1.20;94.90;;;;;;4839147;29;20085;-79
2021/12/09 01:41:01;;;;;;;1.53;0.50;;;1.20;95.00;;;;;;4840444;29;20057;-79
2021/12/09 01:43:28;;;;;;;1.10;0.40;;;1.20;95.00;;;;;;4808230;29;20058;-72
2021/12/09 01:46:13;;;;;;;0.83;0.40;;;1.20;95.00;;;;;;4820632;29;20047;-72
2021/12/09 01:48:42;;;;;;;2.58;0.63;;;1.20;95.00;;;;;;4807420;29;20164;-72
2021/12/09 01:51:10;;;;;;;0.98;0.40;;;1.10;95.00;;;;;;4806384;29;20057;-72
2021/12/09 01:53:40;;;;;;;2.10;0.50;;;1.10;95.00;;;;;;4806781;29;20055;-72
2021/12/09 01:56:12;;;;;;;1.20;0.47;;;1.10;95.00;;;;;;4804668;29;20839;-71
2021/12/09 01:58:39;;;;;;;0.90;0.35;;;1.10;95.00;;;;;;4804577;29;20112;-72
2021/12/09 02:01:07;;;;;;;1.10;0.52;;;1.10;95.00;;;;;;4804479;29;20071;-71
2021/12/09 02:03:34;;;;;;;1.03;0.40;;;1.10;95.00;;;;;;4819421;29;20485;-72
2021/12/09 02:06:03;;;;;;;0.98;0.32;;;1.10;95.00;;;;;;4804401;29;20073;-72
2021/12/09 02:08:30;;;;;;;1.50;0.40;;;1.10;95.00;;;;;;4805650;29;20046;-71
2021/12/09 02:10:58;;;;;;;2.35;0.60;;;1.10;95.00;;;;;;4804175;29;20054;-72
2021/12/09 02:13:25;;;;;;;1.20;0.30;;;1.20;95.00;;;;;;4804255;29;20115;-71
2021/12/09 02:15:54;;;;;;;1.67;0.40;;;1.20;95.00;;;;;;4819262;29;20058;-71
2021/12/09 02:18:22;;;;;;;0.60;0.20;;;1.20;95.00;;;;;;4819348;29;20051;-79
2021/12/09 02:21:06;;;;;;;1.37;0.60;;;1.20;95.00;;;;;;4806484;29;20510;-79
2021/12/09 02:23:34;;;;;;;0.93;0.30;;;1.20;95.00;;;;;;4819403;29;20055;-79
2021/12/09 02:26:01;;;;;;;1.10;0.50;;;1.20;95.00;;;;;;4819694;29;20103;-79
2021/12/09 02:28:28;;;;;;;1.00;0.40;;;1.20;95.00;;;;;;4819830;29;20111;-79
2021/12/09 02:30:55;;;;;;;1.67;0.47;;;1.20;95.00;;;;;;4804884;29;20108;-79
2021/12/09 02:33:22;;;;;;;1.50;0.50;;;1.20;95.00;;;;;;4806123;29;20061;-79
2021/12/09 02:35:49;;;;;;;1.52;0.50;;;1.20;95.00;;;;;;4805098;29;20453;-79
2021/12/09 02:38:16;;;;;;;1.52;0.50;;;1.20;94.90;;;;;;4820004;29;20099;-79
2021/12/09 02:40:48;;;;;;;0.97;0.40;;;1.20;94.90;;;;;;4818825;29;20451;-72
2021/12/09 02:44:11;;;;;;;1.53;0.60;;;1.20;95.00;;;;;;4803711;29;20054;-75
2021/12/09 02:46:39;;;;;;;0.90;0.40;;;1.20;94.90;;;;;;4803881;29;20051;-72
2021/12/09 02:49:15;;;;;;;1.40;0.40;;;1.10;94.90;;;;;;4803912;29;20092;-73
2021/12/09 02:51:43;;;;;;;1.57;0.30;;;1.10;94.90;;;;;;4818886;29;20542;-72
2021/12/09 02:54:12;;;;;;;1.63;0.50;;;1.10;94.90;;;;;;4818797;29;20070;-72
2021/12/09 02:56:40;;;;;;;1.20;0.50;;;1.10;94.90;;;;;;4818883;29;20055;-72
2021/12/09 02:59:08;;;;;;;0.93;0.43;;;1.00;94.90;;;;;;4803071;29;20103;-79
2021/12/09 03:01:43;;;;;;;1.27;0.40;;;1.00;94.90;;;;;;4799008;29;20043;-80
2021/12/09 03:04:11;;;;;;;1.47;0.50;;;1.00;95.00;;;;;;4804598;29;20057;-79
2021/12/09 03:06:41;;;;;;;1.57;0.57;;;1.00;95.00;;;;;;4789716;29;20054;-80
2021/12/09 03:09:27;;;;;;;1.92;0.68;;;0.90;95.00;;;;;;4805648;29;20107;-80
2021/12/09 03:11:55;;;;;;;1.00;0.40;;;0.90;95.00;;;;;;4804240;29;20082;-80
2021/12/09 03:14:23;;;;;;;0.97;0.40;;;0.90;95.10;;;;;;4789748;29;20491;-79
2021/12/09 03:16:52;;;;;;;1.23;0.43;;;0.90;95.10;;;;;;4805123;29;20089;-79
2021/12/09 03:19:19;;;;;;;1.07;0.40;;;0.90;95.00;;;;;;4804675;29;20066;-80
2021/12/09 03:21:47;;;;;;;0.67;0.30;;;0.90;95.00;;;;;;4804860;29;20039;-80
2021/12/09 03:24:17;;;;;;;1.00;0.50;;;0.90;95.00;;;;;;4788799;29;20063;-79
2021/12/09 03:26:54;;;;;;;1.47;0.70;;;0.90;95.00;;;;;;4803870;29;20488;-79
2021/12/09 03:29:24;;;;;;;1.10;0.40;;;0.90;95.00;;;;;;4803625;29;20057;-80
2021/12/09 03:31:56;;;;;;;1.27;0.40;;;0.90;95.00;;;;;;4803563;29;20589;-80
2021/12/09 03:34:28;;;;;;;1.00;0.33;;;0.80;95.00;;;;;;4803262;29;20050;-80
2021/12/09 03:36:57;;;;;;;2.10;0.77;;;0.80;95.10;;;;;;4803223;29;20129;-80
2021/12/09 03:39:29;;;;;;;1.37;0.40;;;0.80;95.10;;;;;;4803542;29;20043;-80
2021/12/09 03:41:57;;;;;;;1.27;0.40;;;0.70;95.10;;;;;;4818496;29;20126;-79
2021/12/09 03:44:26;;;;;;;1.30;0.40;;;0.70;95.10;;;;;;4803100;29;20568;-80
2021/12/09 03:46:56;;;;;;;2.17;0.70;;;0.70;95.10;;;;;;4803865;29;20503;-80
2021/12/09 03:49:24;;;;;;;1.63;0.50;;;0.70;95.10;;;;;;4805225;29;20051;-80
2021/12/09 03:51:52;;;;;;;1.73;0.47;;;0.70;95.00;;;;;;4804126;29;20085;-79
2021/12/09 03:54:20;;;;;;;1.03;0.50;;;0.70;95.10;;;;;;4803957;29;20139;-80
2021/12/09 03:56:47;;;;;;;0.97;0.40;;;0.70;95.10;;;;;;4819111;29;20697;-80
2021/12/09 03:59:14;;;;;;;1.60;0.50;;;0.70;95.10;;;;;;4805118;29;20047;-80
2021/12/09 04:01:45;;;;;;;2.47;0.50;;;0.70;95.10;;;;;;4805174;29;20047;-80
2021/12/09 04:04:15;;;;;;;1.77;0.70;;;0.70;95.10;;;;;;4803313;29;20092;-79
2021/12/09 04:06:44;;;;;;;0.77;0.40;;;0.70;95.10;;;;;;4803509;29;20174;-79
2021/12/09 04:09:14;;;;;;;1.03;0.40;;;0.60;95.10;;;;;;4803444;29;20082;-72
2021/12/09 04:11:41;;;;;;;1.37;0.50;;;0.60;95.10;;;;;;4791444;29;20054;-72
2021/12/09 04:14:08;;;;;;;1.07;0.50;;;0.60;95.10;;;;;;4790998;29;20059;-72
2021/12/09 04:16:36;;;;;;;1.40;0.40;;;0.60;95.10;;;;;;4807554;29;20495;-72
2021/12/09 04:19:05;;;;;;;0.87;0.43;;;0.60;95.10;;;;;;4804861;29;20047;-72
2021/12/09 04:21:33;;;;;;;1.00;0.50;;;0.60;95.10;;;;;;4806160;29;20047;-72
2021/12/09 04:24:07;;;;;;;1.53;0.40;;;0.60;95.10;;;;;;4807083;29;20074;-73
2021/12/09 04:26:38;;;;;;;1.02;0.50;;;0.60;95.10;;;;;;4807384;29;20062;-72
2021/12/09 04:29:07;;;;;;;1.57;0.50;;;0.60;95.10;;;;;;4807013;29;20728;-72
2021/12/09 04:31:35;;;;;;;0.90;0.40;;;0.50;95.10;;;;;;4804833;29;20077;-80
2021/12/09 04:34:03;;;;;;;1.07;0.53;;;0.50;95.10;;;;;;4792295;29;20150;-80
2021/12/09 04:36:31;;;;;;;1.20;0.40;;;0.50;95.10;;;;;;4806848;29;20406;-80
2021/12/09 04:38:58;;;;;;;1.30;0.40;;;0.50;95.10;;;;;;4808479;29;20077;-81
2021/12/09 04:41:26;;;;;;;0.50;0.30;;;0.50;95.10;;;;;;4796326;29;20057;-80
2021/12/09 04:43:55;;;;;;;0.80;0.40;;;0.50;95.10;;;;;;4831624;29;20082;-80
2021/12/09 04:46:22;;;;;;;1.10;0.40;;;0.50;95.20;;;;;;4809149;29;20038;-72
2021/12/09 04:48:49;;;;;;;2.00;0.40;;;0.50;95.10;;;;;;4822419;29;20425;-73
2021/12/09 04:51:16;;;;;;;2.70;0.53;;;0.50;95.20;;;;;;4791989;29;20512;-73
2021/12/09 04:53:43;;;;;;;1.90;0.40;;;0.40;95.10;;;;;;4820432;29;20038;-73
2021/12/09 04:56:10;;;;;;;1.00;0.40;;;0.50;95.20;;;;;;4804329;29;20054;-73
2021/12/09 04:58:37;;;;;;;1.63;0.43;;;0.40;95.10;;;;;;4789010;29;20062;-73
2021/12/09 05:01:07;;;;;;;0.87;0.30;;;0.40;95.10;;;;;;4793653;29;20066;-73
2021/12/09 05:03:35;;;;;;;2.83;0.40;;;0.40;95.20;;;;;;4817585;29;20055;-73
2021/12/09 05:06:02;;;;;;;1.00;0.40;;;0.40;95.10;;;;;;4789464;29;20129;-73
2021/12/09 05:08:32;;;;;;;2.23;0.70;;;0.40;95.10;;;;;;4802790;29;20055;-73
2021/12/09 05:11:13;;;;;;;4.23;0.67;;;0.40;95.10;;;;;;4803045;29;20097;-73
2021/12/09 05:13:41;;;;;;;1.43;0.40;;;0.40;95.10;;;;;;4819546;29;20055;-73
2021/12/09 05:16:11;;;;;;;1.00;0.40;;;0.40;95.20;;;;;;4785556;29;20666;-73
2021/12/09 05:18:40;;;;;;;1.40;0.53;;;0.40;95.10;;;;;;4816432;29;20051;-73
2021/12/09 05:21:10;;;;;;;1.10;0.50;;;0.40;95.10;;;;;;4806306;29;20395;-73
2021/12/09 05:23:38;;;;;;;0.97;0.50;;;0.40;95.20;;;;;;4821206;29;20061;-73
2021/12/09 05:26:06;;;;;;;1.50;0.50;;;0.40;95.20;;;;;;4803736;29;20115;-73
2021/12/09 05:28:41;;;;;;;1.00;0.40;;;0.40;95.20;;;;;;4804695;29;20057;-73
2021/12/09 05:33:58;;;;;;;1.37;0.50;;;0.40;95.20;;;;;;4813167;29;20065;-73
2021/12/09 05:36:28;;;;;;;2.17;0.60;;;0.30;95.20;;;;;;4819782;29;20063;-73
2021/12/09 05:38:55;;;;;;;0.90;0.40;;;0.30;95.10;;;;;;4822701;29;20747;-80
2021/12/09 05:41:22;;;;;;;1.30;0.50;;;0.30;95.10;;;;;;4821744;29;20141;-80
2021/12/09 05:43:50;;;;;;;1.20;0.40;;;0.30;95.20;;;;;;4791487;29;20161;-81
2021/12/09 05:46:17;;;;;;;2.90;0.50;;;0.30;95.20;;;;;;4805106;29;20104;-80
2021/12/09 05:48:44;;;;;;;1.83;0.50;;;0.30;95.20;;;;;;4807993;29;20055;-81
2021/12/09 05:51:11;;;;;;;1.43;0.50;;;0.30;95.20;;;;;;4772049;29;20123;-80
2021/12/09 05:53:38;;;;;;;1.90;0.57;;;0.30;95.10;;;;;;4812286;29;20079;-80
2021/12/09 05:56:06;;;;;;;1.60;0.53;;;0.30;95.20;;;;;;4825018;29;20123;-80
2021/12/09 05:58:36;;;;;;;1.60;0.50;;;0.30;95.20;;;;;;4815382;29;20071;-80
2021/12/09 06:01:05;;;;;;;2.05;0.73;;;0.30;95.20;;;;;;4808570;29;20047;-80
2021/12/09 06:03:33;;;;;;;1.87;0.40;;;0.30;95.20;;;;;;4785321;29;20483;-80
2021/12/09 06:06:06;;;;;;;3.30;0.80;;;0.30;95.20;;;;;;4814188;29;20118;-79
2021/12/09 06:08:36;;;;;;;1.47;0.63;;;0.30;95.20;;;;;;4806016;29;20046;-79
2021/12/09 06:11:05;;;;;;;0.90;0.40;;;0.20;95.20;;;;;;4805263;29;20460;-79
2021/12/09 06:13:36;;;;;;;1.03;0.40;;;0.20;95.20;;;;;;4816622;29;20061;-79
2021/12/09 06:16:04;;;;;;;1.43;0.50;;;0.20;95.20;;;;;;4820358;29;20503;-79
2021/12/09 06:18:32;;;;;;;1.23;0.40;;;0.20;95.20;;;;;;4802198;29;20054;-78
2021/12/09 06:21:00;;;;;;;1.47;0.40;;;0.20;95.20;;;;;;4810323;29;20054;-80
2021/12/09 06:23:27;;;;;;;1.00;0.40;;;0.20;95.20;;;;;;4792273;29;20054;-79
2021/12/09 06:25:58;;;;;;;0.80;0.40;;;0.20;95.20;;;;;;4808306;29;20774;-79
2021/12/09 06:28:41;;;;;;;;;;;;;;;;;;;;;
2021/12/09 06:31:16;;;;;;;1.27;0.47;;;0.20;95.20;;;;;;4808889;29;20051;-80
2021/12/09 06:33:45;;;;;;;1.17;0.37;;;0.20;95.20;;;;;;4806693;29;20046;-80
2021/12/09 06:36:12;;;;;;;1.93;0.47;;;0.20;95.30;;;;;;4823576;29;20043;-79
2021/12/09 06:38:43;;;;;;;1.13;0.30;;;0.20;95.20;;;;;;4821189;29;20046;-80
2021/12/09 06:41:10;;;;;;;0.53;0.37;;;0.20;95.20;;;;;;4806886;29;20058;-79
2021/12/09 06:43:42;;;;;;;0.87;0.37;;;0.20;95.20;;;;;;4792449;29;20400;-79
2021/12/09 06:46:12;;;;;;;0.77;0.30;;;0.20;95.20;;;;;;4793583;29;20445;-79
2021/12/09 06:48:40;;;;;;;0.67;0.30;;;0.20;95.20;;;;;;4808904;29;20851;-79
2021/12/09 06:51:08;;;;;;;0.90;0.40;;;0.20;95.20;;;;;;4808341;29;20103;-78
2021/12/09 06:53:37;;;;;;;1.43;0.33;;;0.20;95.20;;;;;;4806904;29;20071;-79
2021/12/09 06:56:05;;;;;;;0.93;0.30;;;0.20;95.20;;;;;;4808345;29;20146;-79
2021/12/09 06:58:33;;;;;;;0.60;0.30;;;0.20;95.20;;;;;;4795379;29;20053;-81
2021/12/09 07:01:02;;;;;;;1.07;0.30;;;0.20;95.20;;;;;;4799281;29;20050;-81
2021/12/09 07:03:30;;;;;;;1.10;0.50;;;0.20;95.20;;;;;;4790818;29;20050;-80
2021/12/09 07:06:01;;;;;;;1.67;0.50;;;0.20;95.20;;;;;;4778924;29;20090;-79
2021/12/09 07:08:29;;;;;;;1.10;0.50;;;0.20;95.20;;;;;;4794302;29;20141;-80
2021/12/09 07:10:56;;;;;;;1.03;0.50;;;0.20;95.20;;;;;;4792232;29;20059;-80
2021/12/09 07:13:23;;;;;;;1.57;0.60;;;0.20;95.20;;;;;;4795252;29;21307;-80
2021/12/09 07:15:50;;;;;;;0.90;0.30;;;0.20;95.20;;;;;;4799928;29;20055;-81
2021/12/09 07:18:22;;;;;;;0.60;0.30;;;0.20;95.40;;;;;;4808325;29;20092;-80
2021/12/09 07:20:49;;;;;;;0.95;0.35;;;0.20;95.20;;;;;;4792877;29;20142;-81
2021/12/09 07:23:16;;;;;;;0.87;0.23;;;0.20;95.20;;;;;;4799323;29;20047;-80
2021/12/09 07:25:44;;;;;;;0.80;0.30;;;0.20;95.20;;;;;;4794250;29;20467;-80
2021/12/09 07:28:11;;;;;;;1.30;0.33;;;0.20;95.20;;;;;;4809265;29;20043;-82
2021/12/09 07:30:39;;;;;;;0.60;0.30;;;0.20;95.20;;;;;;4827959;29;20078;-81
2021/12/09 07:33:06;;;;;;;0.93;0.30;;;0.20;95.20;;;;;;4807219;29;20110;-82
2021/12/09 07:35:35;;;;;;;0.87;0.40;;;0.20;95.20;;;;;;4804922;29;20530;-79
2021/12/09 07:38:04;;;;;;;0.90;0.30;;;0.20;95.20;;;;;;4820785;29;20165;-83
2021/12/09 07:40:32;;;;;;;1.10;0.40;;;0.20;95.20;;;;;;4811726;29;20093;-82
2021/12/09 07:42:59;;;;;;;1.20;0.37;;;0.20;95.20;;;;;;4804813;29;20130;-81
2021/12/09 07:45:27;;;;;;;0.70;0.30;;;0.20;95.10;;;;;;4795560;29;20059;-83
2021/12/09 07:47:54;;;;;;;0.73;0.40;;;0.20;95.20;;;;;;4795565;29;20047;-86
2021/12/09 07:50:24;;;;;;;0.93;0.37;;;0.20;95.20;;;;;;4797401;29;20141;-83
2021/12/09 07:52:52;;;;;;;1.27;0.40;;;0.20;95.20;;;;;;4826851;29;20051;-83
2021/12/09 07:55:21;;;;;;;0.67;0.20;;;0.20;95.20;;;;;;4798065;29;20715;-84
2021/12/09 07:57:49;;;;;;;1.00;0.30;;;0.20;95.20;;;;;;4812521;29;20140;-83
2021/12/09 08:00:20;;;;;;;3.03;0.70;;;0.30;95.20;;;;;;4810770;29;20046;-84
2021/12/09 08:02:49;;;;;;;0.87;0.37;;;0.30;95.20;;;;;;4813717;29;20051;-81
2021/12/09 08:05:21;;;;;;;0.90;0.30;;;0.40;95.20;;;;;;4813265;29;20138;-82
2021/12/09 08:07:49;;;;;;;1.83;0.60;;;0.40;95.20;;;;;;4812185;29;20061;-82
2021/12/09 08:10:22;;;;;;;0.87;0.30;;;0.50;95.20;;;;;;4798913;29;20047;-82
2021/12/09 08:12:50;;;;;;;1.23;0.40;;;0.50;95.10;;;;;;4825423;29;20055;-84
2021/12/09 08:15:33;;;;;;;0.70;0.20;;;0.50;95.10;;;;;;4825282;29;20110;-82
2021/12/09 08:18:14;;;;;;;1.03;0.40;;;0.50;95.10;;;;;;4809607;29;20088;-81
2021/12/09 08:20:41;;;;;;;1.03;0.30;;;0.50;95.10;;;;;;4799360;29;20047;-83
2021/12/09 08:23:11;;;;;;;1.90;0.50;;;0.50;95.10;;;;;;4798882;29;20154;-83
2021/12/09 08:25:38;;;;;;;1.53;0.40;;;0.50;95.10;;;;;;4795937;29;20055;-83
2021/12/09 08:28:06;;;;;;;1.40;0.30;;;0.50;95.10;;;;;;4800489;29;20089;-82
2021/12/09 08:30:36;;;;;;;0.93;0.40;;;0.50;95.10;;;;;;4827974;29;20636;-82
2021/12/09 08:33:20;;;;;;;1.07;0.40;;;0.60;95.10;;;;;;4806230;29;20061;-82
2021/12/09 08:35:51;;;;;;;1.10;0.30;;;0.60;95.10;;;;;;4811759;29;20506;-84
2021/12/09 08:38:23;;;;;;;2.87;0.40;;;0.70;95.10;;;;;;4808312;29;20112;-83
2021/12/09 08:40:52;;;;;;;1.17;0.40;;;0.70;95.10;;;;;;4808690;29;20062;-84
2021/12/09 08:43:20;;;;;;;0.67;0.30;;;0.70;95.10;;;;;;4803279;29;20068;-83
2021/12/09 08:45:49;;;;;;;2.07;0.63;;;0.70;95.10;;;;;;4795684;29;20108;-84
2021/12/09 08:48:17;;;;;;;1.23;0.50;;;0.70;95.10;;;;;;4810469;29;20040;-83
2021/12/09 08:50:44;;;;;;;1.20;0.50;;;0.90;95.20;;;;;;4815948;29;20219;-82
2021/12/09 08:53:20;;;;;;;1.10;0.40;;;1.00;95.20;;;;;;4792190;29;20069;-82
2021/12/09 08:55:47;;;;;;;1.63;0.47;;;1.20;95.10;;;;;;4800670;29;20054;-80
2021/12/09 08:58:16;;;;;;;2.37;0.70;;;1.40;95.10;;;;;;4809283;29;20061;-80
2021/12/09 09:00:44;;;;;;;3.05;0.90;;;1.50;95.00;;;;;;4810421;29;20064;-78
2021/12/09 09:03:12;;;;;;;3.60;1.10;;;1.70;95.00;;;;;;4824390;29;20084;-82
2021/12/09 09:05:42;;;;;;;4.13;0.80;;;1.80;94.90;;;;;;4776797;29;20055;-86
2021/12/09 09:08:09;;;;;;;2.08;0.73;;;2.00;94.80;;;;;;4810281;29;20050;-83
2021/12/09 09:10:39;;;;;;;2.95;0.50;;;2.10;94.70;;;;;;4812551;29;20078;-81
2021/12/09 09:13:09;;;;;;;3.77;0.83;;;2.20;94.70;;;;;;4810889;29;20063;-82
2021/12/09 09:15:37;;;;;;;2.38;0.60;;;2.30;94.70;;;;;;4806802;29;20054;-82
2021/12/09 09:18:05;;;;;;;2.08;0.73;;;2.30;94.70;;;;;;4809862;29;20104;-82
2021/12/09 09:20:37;;;;;;;2.47;0.98;;;2.40;94.70;;;;;;4822782;29;20153;-79
2021/12/09 09:23:13;;;;;;;2.60;0.88;;;2.50;94.60;;;;;;4810039;29;20106;-78
2021/12/09 09:25:42;;;;;;;3.05;1.00;;;2.60;94.60;;;;;;4824835;29;20054;-77
2021/12/09 09:28:10;;;;;;;2.90;1.52;;;2.60;94.50;;;;;;4824014;29;20066;-79
2021/12/09 09:30:42;;;;;;;1.98;0.88;;;2.70;94.50;;;;;;4812644;29;20042;-80
2021/12/09 09:33:14;;;;;;;2.10;0.77;;;2.80;94.50;;;;;;4805809;29;20186;-82
2021/12/09 09:35:43;;;;;;;3.67;1.17;;;2.90;94.50;;;;;;4821994;29;20508;-77
2021/12/09 09:38:10;;;;;;;2.60;0.88;;;2.90;94.40;;;;;;4811017;29;20515;-76
2021/12/09 09:40:50;;;;;;;3.20;1.33;;;3.00;94.40;;;;;;4822263;29;20403;-79
2021/12/09 09:46:06;;;;;;;2.50;0.90;;;3.10;94.40;;;;;;4826215;29;20054;-83
2021/12/09 09:48:36;;;;;;;4.10;1.10;;;3.10;94.30;;;;;;4811588;29;20059;-87
2021/12/09 09:51:05;;;;;;;3.53;1.13;;;3.10;94.30;;;;;;4811834;29;20074;-87
2021/12/09 09:53:33;;;;;;;3.13;1.00;;;3.20;94.30;;;;;;4810755;29;20063;-83
2021/12/09 09:56:01;;;;;;;2.13;0.90;;;3.30;94.30;;;;;;4808537;29;20057;-87
2021/12/09 09:58:28;;;;;;;3.17;0.90;;;3.30;94.30;;;;;;4778967;29;20499;-86
2021/12/09 10:00:56;;;;;;;5.45;1.77;;;3.30;94.30;;;;;;4811429;29;21327;-86
2021/12/09 10:03:29;;;;;;;4.07;1.33;;;3.30;94.30;;;;;;4816900;29;20031;-84
2021/12/09 10:06:02;;;;;;;4.00;1.23;;;3.40;94.30;;;;;;4808586;29;20051;-86
2021/12/09 10:08:32;;;;;;;3.13;1.23;;;3.40;94.20;;;;;;4821770;29;20054;-84
2021/12/09 10:11:00;;;;;;;3.80;1.58;;;3.40;94.30;;;;;;4803038;29;20066;-82
2021/12/09 10:13:30;;;;;;;3.63;1.73;;;3.40;94.30;;;;;;4808027;29;20083;-84
2021/12/09 10:16:01;;;;;;;3.78;1.17;;;3.50;94.20;;;;;;4824656;29;20106;-89
2021/12/09 10:18:42;;;;;;;4.03;1.65;;;3.50;94.20;;;;;;4811077;29;20241;-86
2021/12/09 10:21:11;;;;;;;5.05;1.33;;;3.50;94.20;;;;;;4807602;29;20058;-83
2021/12/09 10:23:46;;;;;;;5.10;1.40;;;3.50;94.20;;;;;;4814812;29;20046;-82
2021/12/09 10:26:42;;;;;;;3.80;1.10;;;3.60;94.20;;;;;;4821344;29;20039;-85
2021/12/09 10:29:18;;;;;;;3.67;1.48;;;3.60;94.20;;;;;;4806154;29;20112;-83
2021/12/09 10:31:49;;;;;;;3.55;1.40;;;3.60;94.20;;;;;;4810912;29;20042;-82
2021/12/09 10:34:40;;;;;;;6.90;1.83;;;3.70;94.20;;;;;;4822068;29;20062;-82
2021/12/09 10:37:28;;;;;;;5.53;2.20;;;3.70;94.10;;;;;;4806972;29;20130;-83
2021/12/09 10:40:30;;;;;;;4.13;2.15;;;3.70;94.00;;;;;;4809096;29;20054;-82
2021/12/09 10:43:01;;;;;;;4.23;1.93;;;3.70;94.10;;;;;;4826195;29;21335;-83
2021/12/09 10:45:32;;;;;;;7.53;2.35;;;3.80;94.10;;;;;;4819684;29;20078;-83
2021/12/09 10:48:26;;;;;;;7.55;2.47;;;3.80;94.10;;;;;;4815215;29;20586;-81
2021/12/09 10:51:13;;;;;;;4.63;2.28;;;3.80;94.00;;;;;;4806318;29;20071;-83
2021/12/09 10:53:50;;;;;;;5.97;2.40;;;3.80;94.10;;;;;;4822064;29;20050;-87
2021/12/09 10:56:27;;;;;;;5.40;2.05;;;3.90;94.10;;;;;;4808941;29;20066;-85
2021/12/09 10:58:54;;;;;;;4.47;1.65;;;3.90;94.10;;;;;;4821521;29;20047;-82
2021/12/09 11:01:24;;;;;;;4.22;1.55;;;3.90;94.40;;;;;;4792672;29;20042;-81
2021/12/09 11:04:00;;;;;;;4.15;1.92;;;3.90;94.10;;;;;;4808549;29;20483;-85
2021/12/09 11:06:38;;;;;;;4.03;1.70;;;3.90;94.10;;;;;;4810525;29;20050;-83
2021/12/09 11:09:08;;;;;;;5.03;1.80;;;4.00;94.10;;;;;;4824653;29;20053;-85
2021/12/09 11:11:42;;;;;;;4.15;2.10;;;3.90;94.10;;;;;;4808181;29;20062;-84
2021/12/09 11:14:17;;;;;;;6.60;3.28;;;3.90;94.10;;;;;;4812092;29;20127;-82
2021/12/09 11:17:03;;;;;;;5.05;2.83;;;3.90;94.10;;;;;;4808898;29;20058;-82
2021/12/09 11:19:39;;;;;;;6.60;3.38;;;4.00;94.10;;;;;;4817978;29;20047;-81
2021/12/09 11:22:10;;;;;;;6.10;2.70;;;4.00;94.10;;;;;;4817202;29;20128;-83
2021/12/09 11:24:42;;;;;;;5.97;2.75;;;4.00;94.10;;;;;;4825606;29;20065;-82
2021/12/09 11:27:12;;;;;;;7.82;3.15;;;4.00;94.10;;;;;;4808437;29;20062;-83
2021/12/09 11:29:45;;;;;;;7.43;3.42;;;4.10;94.10;;;;;;4810188;29;20067;-82
2021/12/09 11:32:37;;;;;;;6.10;3.45;;;4.10;94.10;;;;;;4810163;29;20111;-83
2021/12/09 11:43:06;;;;;;;7.50;3.65;;;4.10;94.00;;;;;;4820671;29;20073;-83
2021/12/09 11:45:47;;;;;;;6.43;3.25;;;4.20;94.10;;;;;;4808846;29;20058;-78
2021/12/09 11:48:16;;;;;;;5.53;3.25;;;4.20;94.30;;;;;;4819325;29;20082;-82
2021/12/09 11:50:48;;;;;;;5.57;2.30;;;4.30;94.10;;;;;;4824160;29;20148;-78
2021/12/09 11:53:18;;;;;;;4.05;2.30;;;4.30;94.10;;;;;;4824077;29;20050;-80
2021/12/09 11:55:56;;;;;;;5.03;2.70;;;4.30;94.10;;;;;;4815613;29;20107;-79
2021/12/09 11:58:31;;;;;;;4.88;2.90;;;4.30;94.10;;;;;;4806808;29;20051;-79
2021/12/09 12:13:53;;;;;;;6.03;2.70;;;4.50;94.00;;;;;;4809184;29;20055;-82
2021/12/09 12:16:31;;;;;;;7.45;3.65;;;4.50;94.00;;;;;;4808317;29;20070;-81
2021/12/09 12:19:10;;;;;;;7.03;3.92;;;4.50;94.00;;;;;;4808291;29;20085;-82
2021/12/09 12:22:01;;;;;;;8.52;4.50;;;4.50;94.00;;;;;;4795589;29;20111;-82
2021/12/09 12:24:46;;;;;;;8.30;4.28;;;4.60;94.00;;;;;;4808782;29;20530;-81
2021/12/09 12:27:45;;;;;;;7.10;3.83;;;4.60;94.00;;;;;;4803985;29;20082;-76
2021/12/09 12:41:07;;;;;;;8.98;4.53;;;4.70;93.90;;;;;;4811447;29;20047;-82
2021/12/09 12:43:44;;;;;;;5.30;3.30;;;4.70;94.20;;;;;;4810296;29;20112;-82
2021/12/09 12:49:15;;;;;;;10.88;3.90;;;4.80;93.90;;;;;;4827488;29;20073;-82
2021/12/09 12:52:12;;;;;;;7.83;4.63;;;4.80;93.90;;;;;;4817971;29;20066;-84
2021/12/09 12:54:51;;;;;;;6.65;3.90;;;4.80;93.90;;;;;;4821023;29;20812;-81
2021/12/09 12:57:45;;;;;;;6.57;3.40;;;4.80;93.90;;;;;;4826914;29;20115;-82
2021/12/09 13:00:19;;;;;;;6.95;4.15;;;4.80;93.90;;;;;;4810841;29;20049;-83
2021/12/09 13:06:10;;;;;;;6.85;4.35;;;4.80;93.90;;;;;;4795537;29;20145;-81
2021/12/09 13:12:05;;;;;;;5.63;2.95;;;4.90;93.90;;;;;;4811342;29;20058;-83
2021/12/09 13:15:09;;;;;;;4.85;3.00;;;4.90;93.90;;;;;;4832662;29;20057;-84
2021/12/09 13:17:47;;;;;;;5.90;3.30;;;4.90;93.90;;;;;;4835925;29;20060;-81
2021/12/09 13:20:41;;;;;;;4.47;2.28;;;4.90;93.90;;;;;;4797197;29;20198;-79
2021/12/09 13:23:21;;;;;;;6.25;3.67;;;4.90;93.90;;;;;;4808217;29;20923;-78
2021/12/09 13:26:27;;;;;;;6.13;3.03;;;4.90;94.00;;;;;;4802967;29;20510;-78
2021/12/09 13:29:19;;;;;;;5.35;2.95;;;4.90;93.90;;;;;;4813931;29;20266;-82
2021/12/09 13:35:02;;;;;;;5.10;2.88;;;4.90;93.90;;;;;;4817576;29;20147;-82
2021/12/09 13:37:49;;;;;;;4.30;2.83;;;4.90;93.90;;;;;;4793873;29;20062;-80
2021/12/09 13:40:24;;;;;;;6.95;3.92;;;4.90;93.90;;;;;;4821724;29;20065;-80
2021/12/09 13:45:55;;;;;;;7.35;4.82;;;4.90;93.90;;;;;;4811998;29;20147;-80
2021/12/09 13:48:30;;;;;;;7.13;4.40;;;4.90;93.90;;;;;;4784744;29;20099;-81
2021/12/09 13:51:16;;;;;;;5.57;3.30;;;4.80;93.90;;;;;;4796324;29;20078;-81
2021/12/09 13:54:17;;;;;;;5.18;2.90;;;4.80;93.90;;;;;;4808971;29;20051;-81
2021/12/09 13:56:46;;;;;;;5.30;3.08;;;4.90;94.00;;;;;;4797162;29;20111;-79
2021/12/09 13:59:22;;;;;;;5.55;3.03;;;4.90;94.00;;;;;;4822880;29;20668;-80
2021/12/09 14:01:51;;;;;;;6.70;3.00;;;4.90;94.00;;;;;;4810810;29;20494;-83
2021/12/09 14:04:23;;;;;;;7.97;2.67;;;4.90;94.00;;;;;;4802039;29;20054;-77
2021/12/09 14:07:02;;;;;;;5.68;3.05;;;4.90;94.00;;;;;;4822292;29;20067;-79
2021/12/09 14:09:31;;;;;;;6.15;3.08;;;4.90;94.00;;;;;;4809271;29;20043;-78
2021/12/09 14:11:59;;;;;;;5.43;3.13;;;4.90;94.00;;;;;;4810729;29;20055;-77
2021/12/09 14:14:37;;;;;;;4.70;2.83;;;4.90;94.00;;;;;;4807811;29;20685;-81
2021/12/09 14:17:10;;;;;;;7.50;3.45;;;5.00;94.00;;;;;;4809527;29;20046;-83
2021/12/09 14:22:35;;;;;;;7.43;4.65;;;5.00;94.00;;;;;;4814300;29;20046;-84
2021/12/09 14:25:10;;;;;;;10.35;4.43;;;5.00;94.00;;;;;;4808497;29;20046;-84